Time;durP1;ratioP1;P1;durP2;ratioP2;P2;SDS_P1;SDS_P2;PMS_P1;PMS_P2;Temp;Humidity;BMP_temperature;BMP_pressure;BME280_temperature;BME280_humidity;BME280_pressure;Samples;Min_cycle;Max_cycle;Signal;HPM_P1;HPM_P2
2022/11/08 00:02:54;;;;;;;0.10;0.10;;;9.30;99.90;;;;;;5038119;28;20041;-77
2022/11/08 00:14:04;;;;;;;1.33;1.33;;;9.20;99.90;;;;;;5143486;23;20056;-77
2022/11/08 00:21:40;;;;;;;5.60;5.40;;;9.20;99.90;;;;;;5125961;23;20046;-76
2022/11/08 00:24:06;;;;;;;0.20;0.20;;;9.20;99.90;;;;;;5036596;28;20089;-77
2022/11/08 00:26:31;;;;;;;0.25;0.25;;;9.10;99.90;;;;;;5037251;28;20012;-77
2022/11/08 00:28:58;;;;;;;0.20;0.20;;;9.10;99.90;;;;;;5037765;28;20026;-77
2022/11/08 00:31:23;;;;;;;0.10;0.10;;;9.10;99.90;;;;;;5019109;28;20036;-77
2022/11/08 00:33:49;;;;;;;33.67;20.60;;;9.10;99.90;;;;;;5019633;28;20037;-77
2022/11/08 00:36:36;;;;;;;0.10;0.10;;;9.10;99.90;;;;;;5019601;28;20034;-77
2022/11/08 00:39:17;;;;;;;0.25;0.25;;;9.10;99.90;;;;;;5005899;28;20559;-77
2022/11/08 00:42:14;;;;;;;0.20;0.20;;;9.10;99.90;;;;;;4989272;28;20045;-77
2022/11/08 00:49:51;;;;;;;3.92;3.83;;;9.10;99.90;;;;;;5154692;23;20050;-78
2022/11/08 00:52:16;;;;;;;0.10;0.10;;;9.10;99.90;;;;;;5018685;28;20359;-77
2022/11/08 00:54:42;;;;;;;8.57;8.23;;;9.10;99.90;;;;;;5037078;28;20029;-75
2022/11/08 00:57:08;;;;;;;0.20;0.20;;;9.00;99.90;;;;;;5036907;28;20014;-76
2022/11/08 00:59:33;;;;;;;0.22;0.22;;;8.90;99.90;;;;;;5035545;28;20243;-75
2022/11/08 01:01:59;;;;;;;0.50;0.50;;;9.00;99.90;;;;;;5035684;28;20030;-75
2022/11/08 01:04:32;;;;;;;0.10;0.10;;;8.90;99.90;;;;;;5036987;28;20045;-76
2022/11/08 01:07:19;;;;;;;0.20;0.20;;;8.90;99.90;;;;;;5033531;28;20046;-74
2022/11/08 01:09:45;;;;;;;0.13;0.13;;;8.90;99.90;;;;;;5032760;28;20029;-76
2022/11/08 01:12:11;;;;;;;0.20;0.20;;;8.90;99.90;;;;;;5032480;28;20546;-76
2022/11/08 01:14:40;;;;;;;0.20;0.20;;;8.80;99.90;;;;;;5033171;28;20026;-76
2022/11/08 01:17:06;;;;;;;0.20;0.20;;;8.90;99.90;;;;;;5030793;28;20034;-76
2022/11/08 01:19:31;;;;;;;0.15;0.15;;;8.80;99.90;;;;;;5033886;28;20045;-75
2022/11/08 01:22:00;;;;;;;0.20;0.20;;;8.80;99.90;;;;;;5035118;28;20026;-76
2022/11/08 01:24:30;;;;;;;0.10;0.10;;;8.90;99.90;;;;;;5034596;28;20085;-75
2022/11/08 01:26:58;;;;;;;2.38;2.17;;;8.80;99.90;;;;;;5037000;28;20006;-75
2022/11/08 01:29:30;;;;;;;0.10;0.10;;;8.80;99.90;;;;;;5035626;28;20029;-76
2022/11/08 01:32:02;;;;;;;0.10;0.10;;;8.80;99.90;;;;;;5036102;28;20078;-76
2022/11/08 01:34:30;;;;;;;0.10;0.10;;;8.80;99.90;;;;;;5036178;28;20014;-75
2022/11/08 01:37:02;;;;;;;0.20;0.20;;;8.80;99.90;;;;;;5037137;28;20034;-75
2022/11/08 01:41:58;;;;;;;0.10;0.10;;;8.80;99.90;;;;;;5032739;28;20025;-77
2022/11/08 01:44:23;;;;;;;0.20;0.20;;;8.70;99.90;;;;;;5018279;28;20055;-75
2022/11/08 01:47:06;;;;;;;0.15;0.15;;;8.80;99.90;;;;;;5019259;28;20093;-75
2022/11/08 01:49:38;;;;;;;0.10;0.10;;;8.70;99.90;;;;;;5034730;28;20050;-75
2022/11/08 01:52:47;;;;;;;0.10;0.10;;;8.70;99.90;;;;;;5036843;28;20020;-76
2022/11/08 01:55:15;;;;;;;0.20;0.20;;;8.70;99.90;;;;;;5036909;28;20040;-75
2022/11/08 01:57:59;;;;;;;0.10;0.10;;;8.70;99.90;;;;;;5036204;28;20009;-76
2022/11/08 02:00:45;;;;;;;0.20;0.20;;;8.60;99.90;;;;;;5035719;28;20017;-76
2022/11/08 02:03:33;;;;;;;0.40;0.40;;;8.70;99.90;;;;;;5036128;28;20030;-75
2022/11/08 02:06:11;;;;;;;0.10;0.10;;;8.70;99.90;;;;;;5035752;28;20049;-75
2022/11/08 02:08:59;;;;;;;0.10;0.10;;;8.60;99.90;;;;;;5036292;28;20017;-77
2022/11/08 02:14:20;;;;;;;0.10;0.10;;;8.60;99.90;;;;;;5033535;28;20057;-75
2022/11/08 02:16:46;;;;;;;0.20;0.20;;;8.60;99.90;;;;;;5018800;28;20049;-76
2022/11/08 02:19:38;;;;;;;0.10;0.10;;;8.70;99.90;;;;;;5036232;28;20002;-76
2022/11/08 02:22:12;;;;;;;0.20;0.20;;;8.60;99.90;;;;;;5036198;28;20022;-75
2022/11/08 02:24:39;;;;;;;0.20;0.20;;;8.70;99.90;;;;;;5034967;28;20085;-75
2022/11/08 02:27:04;;;;;;;0.10;0.10;;;8.70;99.90;;;;;;5036524;28;20010;-76
2022/11/08 02:29:33;;;;;;;0.20;0.20;;;8.60;99.90;;;;;;5036179;28;20283;-76
2022/11/08 02:34:44;;;;;;;0.20;0.20;;;8.60;99.90;;;;;;5034467;28;20061;-75
2022/11/08 02:37:18;;;;;;;0.10;0.10;;;8.70;99.90;;;;;;5006154;28;20022;-76
2022/11/08 02:39:45;;;;;;;0.17;0.17;;;8.60;99.90;;;;;;4991811;28;20069;-76
2022/11/08 02:42:15;;;;;;;0.20;0.20;;;8.60;99.90;;;;;;5011422;28;20033;-76
2022/11/08 02:44:40;;;;;;;0.10;0.10;;;8.60;99.90;;;;;;5013881;28;20048;-75
2022/11/08 02:47:06;;;;;;;0.10;0.10;;;8.60;99.90;;;;;;5014347;28;20319;-76
2022/11/08 02:49:32;;;;;;;0.20;0.20;;;8.70;99.90;;;;;;4996393;28;20040;-76
2022/11/08 02:52:03;;;;;;;0.20;0.20;;;8.60;99.90;;;;;;5014239;28;20348;-76
2022/11/08 02:54:31;;;;;;;0.20;0.20;;;8.60;99.90;;;;;;5013238;28;20021;-76
2022/11/08 02:56:56;;;;;;;0.20;0.20;;;8.70;99.90;;;;;;5012905;28;20077;-76
2022/11/08 02:59:22;;;;;;;5.13;4.93;;;8.70;99.90;;;;;;5013219;28;20045;-76
2022/11/08 03:01:48;;;;;;;0.20;0.20;;;8.70;99.90;;;;;;4994705;28;20101;-76
2022/11/08 03:04:14;;;;;;;0.65;0.65;;;8.80;99.90;;;;;;5012739;28;20068;-75
2022/11/08 03:06:58;;;;;;;0.20;0.20;;;8.80;99.90;;;;;;5021603;28;20085;-74
2022/11/08 03:09:25;;;;;;;0.20;0.20;;;8.70;99.90;;;;;;5038996;28;20073;-75
2022/11/08 03:11:52;;;;;;;0.50;0.50;;;8.70;99.90;;;;;;5035132;28;20370;-76
2022/11/08 03:14:17;;;;;;;0.20;0.20;;;8.70;99.90;;;;;;5022065;28;20014;-75
2022/11/08 03:17:11;;;;;;;0.15;0.15;;;8.70;99.90;;;;;;5036349;28;20038;-76
2022/11/08 03:19:37;;;;;;;;;;;8.80;99.90;;;;;;5037604;28;20022;-76
2022/11/08 03:22:23;;;;;;;0.10;0.10;;;8.70;99.90;;;;;;5036711;28;19920;-75
2022/11/08 03:25:36;;;;;;;0.10;0.10;;;8.70;99.90;;;;;;5039465;28;20060;-76
2022/11/08 03:28:26;;;;;;;0.20;0.20;;;8.70;99.90;;;;;;5017414;28;20019;-76
2022/11/08 03:31:12;;;;;;;0.30;0.30;;;8.80;99.90;;;;;;5018232;28;20127;-75
2022/11/08 03:33:57;;;;;;;0.13;0.13;;;8.80;99.90;;;;;;5017101;28;20038;-76
2022/11/08 03:36:24;;;;;;;0.17;0.17;;;8.80;99.90;;;;;;5014676;28;20214;-76
2022/11/08 03:38:54;;;;;;;0.20;0.20;;;8.80;99.90;;;;;;4989816;28;20048;-76
2022/11/08 03:41:21;;;;;;;0.20;0.20;;;8.80;99.90;;;;;;4990924;28;20106;-76
2022/11/08 03:43:46;;;;;;;0.20;0.20;;;8.80;99.90;;;;;;4988082;28;20046;-76
2022/11/08 03:46:13;;;;;;;0.10;0.10;;;8.80;99.90;;;;;;4989385;28;20065;-76
2022/11/08 03:48:39;;;;;;;0.20;0.20;;;8.80;99.90;;;;;;4989589;28;20031;-76
2022/11/08 03:51:05;;;;;;;0.13;0.13;;;8.80;99.90;;;;;;4989728;28;20879;-76
2022/11/08 03:53:34;;;;;;;0.20;0.20;;;8.80;99.90;;;;;;5015932;28;20022;-75
2022/11/08 03:56:20;;;;;;;0.10;0.10;;;8.80;99.90;;;;;;5018371;28;20034;-75
2022/11/08 03:58:45;;;;;;;0.28;0.28;;;8.80;99.90;;;;;;5009044;28;20030;-76
2022/11/08 04:01:58;;;;;;;0.20;0.20;;;8.80;99.90;;;;;;5021753;28;20029;-75
2022/11/08 04:04:53;;;;;;;0.20;0.20;;;7.70;99.90;;;;;;5038624;28;20083;-76
2022/11/08 04:07:27;;;;;;;0.50;0.50;;;8.80;99.90;;;;;;5022491;28;20926;-75
2022/11/08 04:10:25;;;;;;;0.20;0.20;;;8.80;99.90;;;;;;5037911;28;20010;-76
2022/11/08 04:15:39;;;;;;;0.20;0.20;;;8.80;99.90;;;;;;5038822;28;20021;-74
2022/11/08 04:21:23;;;;;;;0.10;0.10;;;8.80;99.90;;;;;;5038175;28;20045;-77
2022/11/08 04:23:51;;;;;;;0.20;0.20;;;8.70;99.90;;;;;;5018401;28;20030;-77
2022/11/08 04:26:20;;;;;;;0.28;0.28;;;8.70;99.90;;;;;;5017012;28;20072;-77
2022/11/08 04:28:46;;;;;;;0.20;0.20;;;8.70;99.90;;;;;;5018839;28;20029;-78
2022/11/08 04:31:15;;;;;;;0.20;0.20;;;8.70;99.90;;;;;;5018241;28;20018;-78
2022/11/08 04:33:41;;;;;;;0.20;0.20;;;8.70;99.90;;;;;;5018177;28;20471;-77
2022/11/08 04:36:15;;;;;;;0.10;0.10;;;8.70;99.90;;;;;;5018613;28;20026;-77
2022/11/08 04:38:52;;;;;;;0.20;0.20;;;8.70;99.90;;;;;;5033616;28;20038;-77
2022/11/08 04:41:20;;;;;;;0.60;0.60;;;8.70;99.90;;;;;;5036259;28;20022;-77
2022/11/08 04:43:47;;;;;;;0.20;0.20;;;8.70;99.90;;;;;;5020360;28;20055;-77
2022/11/08 04:46:16;;;;;;;0.20;0.20;;;8.70;99.90;;;;;;5120805;23;20540;-77
2022/11/08 04:48:43;;;;;;;0.10;0.10;;;6.90;99.90;;;;;;5037779;28;20010;-77
2022/11/08 04:51:20;;;;;;;0.15;0.15;;;8.70;99.90;;;;;;5037336;28;20006;-77
2022/11/08 04:53:56;;;;;;;;;;;;;;;;;;;;;
2022/11/08 04:56:23;;;;;;;0.30;0.30;;;8.60;99.90;;;;;;5003747;28;20527;-78
2022/11/08 04:58:53;;;;;;;0.20;0.20;;;8.60;99.90;;;;;;5009297;28;20030;-77
2022/11/08 05:01:20;;;;;;;0.20;0.20;;;8.60;99.90;;;;;;5005478;28;20026;-77
2022/11/08 05:03:48;;;;;;;0.20;0.20;;;8.60;99.90;;;;;;5006746;28;20030;-77
2022/11/08 05:06:22;;;;;;;0.20;0.20;;;8.60;99.90;;;;;;4989796;28;20056;-78
2022/11/08 05:08:48;;;;;;;0.10;0.10;;;8.60;99.90;;;;;;5012053;28;20033;-77
2022/11/08 05:11:20;;;;;;;0.10;0.10;;;8.60;99.90;;;;;;5011504;28;21007;-76
2022/11/08 05:13:46;;;;;;;0.10;0.10;;;8.50;99.90;;;;;;5012879;28;20030;-74
2022/11/08 05:16:14;;;;;;;0.20;0.20;;;8.60;99.90;;;;;;5009351;28;20105;-78
2022/11/08 05:18:40;;;;;;;0.20;0.20;;;8.60;99.90;;;;;;5008693;28;20025;-75
2022/11/08 05:23:57;;;;;;;0.20;0.20;;;8.60;99.90;;;;;;5030842;28;20052;-75
2022/11/08 05:26:23;;;;;;;0.20;0.20;;;8.60;99.90;;;;;;5035994;28;20025;-74
2022/11/08 05:28:52;;;;;;;0.28;0.28;;;8.60;99.90;;;;;;5017735;28;20026;-76
2022/11/08 05:31:37;;;;;;;0.20;0.20;;;8.60;99.90;;;;;;5022811;28;20084;-75
2022/11/08 05:34:03;;;;;;;0.20;0.20;;;8.70;99.90;;;;;;5034330;28;20026;-75
2022/11/08 05:36:35;;;;;;;0.20;0.20;;;8.70;99.90;;;;;;5034444;28;20045;-75
2022/11/08 05:39:21;;;;;;;0.30;0.30;;;8.50;99.90;;;;;;5035396;28;20014;-73
2022/11/08 05:41:47;;;;;;;0.20;0.20;;;8.60;99.90;;;;;;5029650;28;20010;-75
2022/11/08 05:44:12;;;;;;;0.20;0.20;;;8.60;99.90;;;;;;5016389;28;20041;-75
2022/11/08 05:47:04;;;;;;;0.10;0.10;;;8.70;99.90;;;;;;5032051;28;20026;-75
2022/11/08 05:49:32;;;;;;;0.10;0.10;;;8.70;99.90;;;;;;5012432;28;20018;-75
2022/11/08 05:52:18;;;;;;;0.20;0.20;;;8.70;99.90;;;;;;5011653;28;20006;-75
2022/11/08 05:54:46;;;;;;;0.20;0.20;;;8.80;99.90;;;;;;4993552;28;20101;-75
2022/11/08 05:57:11;;;;;;;0.20;0.20;;;8.70;99.90;;;;;;5004242;28;20027;-75
2022/11/08 05:59:38;;;;;;;0.10;0.10;;;8.70;99.90;;;;;;5005558;28;20118;-75
2022/11/08 06:02:04;;;;;;;0.20;0.20;;;8.70;99.90;;;;;;5007918;28;20086;-74
2022/11/08 06:04:30;;;;;;;0.10;0.10;;;8.70;99.90;;;;;;5007997;28;20034;-76
2022/11/08 06:06:56;;;;;;;0.20;0.20;;;8.70;99.90;;;;;;5013728;28;20336;-77
2022/11/08 06:09:21;;;;;;;0.20;0.20;;;8.70;99.90;;;;;;4994850;28;20046;-75
2022/11/08 06:11:47;;;;;;;0.20;0.20;;;8.70;99.90;;;;;;5011588;28;20014;-75
2022/11/08 06:14:14;;;;;;;1.48;1.48;;;8.70;99.90;;;;;;5009932;28;20023;-74
2022/11/08 06:16:39;;;;;;;0.20;0.20;;;8.70;99.90;;;;;;5007809;28;20079;-75
2022/11/08 06:19:05;;;;;;;0.20;0.20;;;8.70;99.90;;;;;;4999727;28;20030;-75
2022/11/08 06:21:31;;;;;;;0.10;0.10;;;8.70;99.90;;;;;;5022904;28;20038;-76
2022/11/08 06:23:59;;;;;;;0.20;0.20;;;8.70;99.90;;;;;;5025211;28;20061;-75
2022/11/08 06:26:28;;;;;;;2.83;2.75;;;8.70;99.90;;;;;;5010371;28;20120;-76
2022/11/08 06:28:55;;;;;;;0.55;0.55;;;8.80;99.90;;;;;;5027531;28;20049;-77
2022/11/08 06:31:21;;;;;;;0.10;0.10;;;8.80;99.90;;;;;;5031140;28;20026;-77
2022/11/08 06:33:49;;;;;;;0.20;0.20;;;8.90;99.90;;;;;;5032007;28;20040;-75
2022/11/08 06:36:15;;;;;;;0.22;0.22;;;8.90;99.90;;;;;;5032502;28;20033;-78
2022/11/08 06:38:46;;;;;;;0.20;0.20;;;8.90;99.90;;;;;;5007174;28;20033;-77
2022/11/08 06:41:18;;;;;;;0.20;0.20;;;9.00;99.90;;;;;;5030310;28;20060;-77
2022/11/08 06:43:43;;;;;;;0.20;0.20;;;9.00;99.90;;;;;;5037362;28;20045;-77
2022/11/08 06:46:09;;;;;;;0.20;0.20;;;9.00;99.90;;;;;;5121583;23;20046;-78
2022/11/08 06:48:35;;;;;;;0.20;0.20;;;9.00;99.90;;;;;;5020707;28;20041;-76
2022/11/08 06:51:03;;;;;;;0.10;0.10;;;9.10;99.90;;;;;;5029771;28;20387;-77
2022/11/08 06:53:31;;;;;;;0.10;0.10;;;9.10;99.90;;;;;;5027489;28;20088;-77
2022/11/08 06:55:59;;;;;;;0.20;0.20;;;9.10;99.90;;;;;;5014680;28;20025;-76
2022/11/08 06:58:27;;;;;;;0.40;0.40;;;9.20;99.90;;;;;;5016513;28;20018;-78
2022/11/08 07:00:53;;;;;;;0.20;0.20;;;9.20;99.90;;;;;;5001124;28;20022;-78
2022/11/08 07:03:19;;;;;;;0.20;0.20;;;9.20;99.90;;;;;;5000353;28;20029;-78
2022/11/08 07:05:46;;;;;;;1.45;1.45;;;9.20;99.90;;;;;;4999922;28;20042;-78
2022/11/08 07:08:12;;;;;;;0.20;0.20;;;9.20;99.90;;;;;;5015042;28;20022;-75
2022/11/08 07:10:39;;;;;;;0.20;0.20;;;9.20;99.90;;;;;;5036955;28;20029;-75
2022/11/08 07:13:12;;;;;;;0.20;0.20;;;9.20;99.90;;;;;;5009565;28;20041;-75
2022/11/08 07:15:39;;;;;;;0.20;0.20;;;9.20;99.90;;;;;;5034116;28;20020;-75
2022/11/08 07:18:34;;;;;;;0.20;0.20;;;9.20;99.90;;;;;;5019123;28;20022;-78
2022/11/08 07:21:01;;;;;;;0.20;0.20;;;9.20;99.90;;;;;;5012329;28;20082;-77
2022/11/08 07:23:27;;;;;;;0.20;0.20;;;9.20;99.90;;;;;;5032266;28;20017;-76
2022/11/08 07:25:54;;;;;;;0.20;0.20;;;9.20;99.90;;;;;;5033444;28;20034;-75
2022/11/08 07:28:21;;;;;;;0.20;0.20;;;9.20;99.90;;;;;;5031673;28;20691;-76
2022/11/08 07:30:48;;;;;;;0.17;0.17;;;9.30;99.90;;;;;;5031967;28;20052;-76
2022/11/08 07:33:14;;;;;;;0.15;0.15;;;9.30;99.90;;;;;;5010634;28;20040;-76
2022/11/08 07:35:40;;;;;;;0.20;0.20;;;9.40;99.90;;;;;;5027557;28;20014;-75
2022/11/08 07:38:08;;;;;;;0.20;0.20;;;9.30;99.90;;;;;;5009788;28;20090;-75
2022/11/08 07:40:34;;;;;;;0.20;0.20;;;9.40;99.90;;;;;;5027045;28;20073;-76
2022/11/08 07:43:00;;;;;;;0.20;0.20;;;9.50;99.90;;;;;;5030087;28;20414;-74
2022/11/08 07:45:26;;;;;;;0.20;0.20;;;9.50;99.90;;;;;;5023428;28;20145;-77
2022/11/08 07:48:03;;;;;;;0.30;0.30;;;9.50;99.90;;;;;;5025548;28;20708;-75
2022/11/08 07:50:29;;;;;;;0.20;0.20;;;9.50;99.90;;;;;;5029216;28;20026;-75
2022/11/08 07:52:55;;;;;;;0.20;0.20;;;9.50;99.90;;;;;;5026183;28;20018;-75
2022/11/08 07:55:25;;;;;;;0.20;0.20;;;9.50;99.90;;;;;;5012226;28;20029;-75
2022/11/08 07:57:55;;;;;;;0.47;0.47;;;9.40;99.90;;;;;;5011925;28;20085;-77
2022/11/08 08:00:21;;;;;;;1.23;1.17;;;9.60;99.90;;;;;;5010888;28;20018;-77
2022/11/08 08:02:55;;;;;;;0.95;0.95;;;9.60;99.90;;;;;;4993653;28;20064;-75
2022/11/08 08:05:21;;;;;;;0.20;0.20;;;9.60;99.90;;;;;;5011083;28;20026;-77
2022/11/08 08:07:46;;;;;;;0.20;0.20;;;9.60;99.90;;;;;;4993943;28;20065;-77
2022/11/08 08:10:12;;;;;;;0.25;0.25;;;9.60;99.90;;;;;;5035075;28;20010;-77
2022/11/08 08:12:38;;;;;;;0.20;0.20;;;9.60;99.90;;;;;;5035241;28;20033;-76
2022/11/08 08:15:04;;;;;;;0.20;0.20;;;9.70;99.90;;;;;;5034769;28;20002;-77
2022/11/08 08:17:49;;;;;;;0.20;0.20;;;9.60;99.90;;;;;;5038489;28;20062;-76
2022/11/08 08:20:21;;;;;;;0.20;0.20;;;9.60;99.90;;;;;;5035849;28;20018;-77
2022/11/08 08:23:07;;;;;;;0.20;0.20;;;9.70;99.90;;;;;;5036870;28;20044;-77
2022/11/08 08:25:33;;;;;;;0.20;0.20;;;10.40;99.90;;;;;;5034168;28;20046;-78
2022/11/08 08:28:00;;;;;;;1.75;1.70;;;10.40;99.90;;;;;;5033799;28;20032;-76
2022/11/08 08:30:27;;;;;;;0.20;0.20;;;10.40;99.90;;;;;;5036989;28;20052;-76
2022/11/08 08:33:01;;;;;;;0.20;0.20;;;10.40;99.90;;;;;;5020141;28;20054;-74
2022/11/08 08:35:27;;;;;;;1.40;1.40;;;10.70;99.90;;;;;;5033043;28;20006;-74
2022/11/08 08:37:57;;;;;;;0.20;0.20;;;12.30;99.90;;;;;;5036675;28;20030;-73
2022/11/08 08:40:23;;;;;;;0.10;0.10;;;12.90;99.90;;;;;;5035139;28;20009;-77
2022/11/08 08:42:48;;;;;;;0.10;0.10;;;13.50;99.90;;;;;;5017690;28;20105;-90
2022/11/08 08:45:14;;;;;;;0.10;0.10;;;13.60;99.90;;;;;;5016213;28;20042;-91
2022/11/08 08:47:56;;;;;;;0.10;0.10;;;13.20;99.90;;;;;;5008786;28;20013;-75
2022/11/08 08:50:26;;;;;;;0.10;0.10;;;12.70;99.90;;;;;;5018554;28;20012;-81
2022/11/08 08:53:20;;;;;;;0.13;0.13;;;12.30;99.90;;;;;;5032683;28;20120;-75
2022/11/08 08:55:46;;;;;;;0.20;0.20;;;12.00;99.90;;;;;;5010292;28;20026;-75
2022/11/08 08:58:13;;;;;;;1.85;1.77;;;11.60;99.90;;;;;;5011951;28;20273;-76
2022/11/08 09:26:33;;;;;;;0.10;0.10;;;11.30;99.90;;;;;;5057711;23;20057;-76
2022/11/08 09:29:00;;;;;;;0.20;0.20;;;11.40;99.90;;;;;;5019575;28;20006;-76
2022/11/08 09:31:26;;;;;;;0.32;0.32;;;11.40;99.90;;;;;;5018162;28;20094;-77
2022/11/08 09:33:51;;;;;;;0.20;0.20;;;11.50;99.90;;;;;;5031662;28;20033;-75
2022/11/08 09:36:18;;;;;;;0.10;0.10;;;11.50;99.90;;;;;;5030776;28;20034;-81
2022/11/08 09:38:43;;;;;;;0.20;0.20;;;11.50;99.90;;;;;;5031818;28;20029;-76
2022/11/08 09:41:30;;;;;;;0.20;0.20;;;11.30;99.90;;;;;;5027573;28;20017;-76
2022/11/08 09:44:16;;;;;;;1.20;1.20;;;11.50;99.90;;;;;;5027040;28;20014;-76
2022/11/08 09:47:02;;;;;;;0.20;0.20;;;11.50;99.90;;;;;;5029937;28;20029;-76
2022/11/08 09:49:34;;;;;;;0.40;0.40;;;11.60;99.90;;;;;;5031769;28;20018;-76
2022/11/08 09:52:35;;;;;;;0.20;0.20;;;11.30;99.90;;;;;;5015700;28;20030;-76
2022/11/08 09:55:23;;;;;;;0.40;0.40;;;11.20;99.90;;;;;;4954053;29;20027;-75
2022/11/08 09:58:03;;;;;;;0.20;0.20;;;11.40;99.90;;;;;;4951807;29;20099;-77
2022/11/08 10:00:36;;;;;;;0.20;0.20;;;11.40;99.90;;;;;;4949775;29;20040;-77
2022/11/08 10:03:02;;;;;;;0.20;0.20;;;11.30;99.90;;;;;;5034113;23;20326;-78
2022/11/08 10:05:35;;;;;;;0.20;0.20;;;11.40;99.90;;;;;;5031155;28;20025;-79
2022/11/08 10:08:09;;;;;;;0.15;0.15;;;11.30;99.90;;;;;;5030113;28;20002;-78
2022/11/08 10:11:10;;;;;;;0.13;0.13;;;11.50;99.90;;;;;;5011855;28;20034;-77
2022/11/08 10:13:43;;;;;;;0.20;0.20;;;11.40;99.90;;;;;;5008418;28;20019;-76
2022/11/08 10:16:35;;;;;;;0.13;0.13;;;11.60;99.90;;;;;;5006137;23;20019;-77
2022/11/08 10:19:55;;;;;;;1.27;1.27;;;11.70;99.90;;;;;;5034025;28;20022;-76
2022/11/08 10:22:48;;;;;;;0.63;0.63;;;11.80;99.90;;;;;;4955283;29;20035;-74
2022/11/08 10:25:19;;;;;;;0.20;0.20;;;12.00;99.90;;;;;;4955187;29;20055;-75
2022/11/08 10:27:44;;;;;;;0.57;0.57;;;12.10;99.90;;;;;;4948573;29;20014;-76
2022/11/08 10:30:13;;;;;;;0.40;0.40;;;12.30;99.90;;;;;;4952559;29;20036;-76
2022/11/08 10:32:39;;;;;;;0.20;0.20;;;12.40;99.90;;;;;;4949293;29;20028;-76
2022/11/08 10:35:10;;;;;;;0.52;0.52;;;12.50;99.90;;;;;;4931709;29;20036;-76
2022/11/08 10:37:37;;;;;;;0.20;0.20;;;12.50;99.90;;;;;;4951001;29;20028;-75
2022/11/08 10:40:31;;;;;;;0.85;0.85;;;12.50;99.90;;;;;;4931351;29;20040;-76
2022/11/08 10:43:25;;;;;;;1.98;1.88;;;12.50;99.90;;;;;;4944229;29;20067;-76
2022/11/08 10:45:53;;;;;;;0.20;0.20;;;12.60;99.90;;;;;;4927209;29;20056;-76
2022/11/08 10:48:18;;;;;;;0.20;0.20;;;12.70;99.90;;;;;;4928423;29;20035;-76
2022/11/08 10:51:05;;;;;;;0.30;0.30;;;12.60;99.90;;;;;;4926056;29;20909;-76
2022/11/08 10:53:33;;;;;;;0.90;0.90;;;12.70;99.90;;;;;;4901543;29;20311;-76
2022/11/08 10:56:07;;;;;;;0.38;0.38;;;13.00;99.90;;;;;;4936358;29;20043;-77
2022/11/08 10:58:59;;;;;;;0.10;0.10;;;13.00;99.90;;;;;;4954122;29;20043;-76
2022/11/08 11:01:25;;;;;;;0.10;0.10;;;13.00;99.90;;;;;;4898566;29;20071;-77
2022/11/08 11:03:52;;;;;;;0.30;0.30;;;13.10;99.90;;;;;;4915952;29;20068;-76
2022/11/08 11:06:29;;;;;;;0.15;0.15;;;13.10;99.90;;;;;;4909156;29;20072;-76
2022/11/08 11:09:20;;;;;;;0.20;0.20;;;13.10;99.90;;;;;;4909581;29;20032;-77
2022/11/08 11:11:56;;;;;;;1.90;1.83;;;13.00;99.90;;;;;;4926171;29;20064;-77
2022/11/08 11:14:23;;;;;;;0.10;0.10;;;13.20;99.90;;;;;;4924638;29;20036;-76
2022/11/08 11:17:37;;;;;;;0.20;0.20;;;13.20;99.90;;;;;;4924278;29;20064;-76
2022/11/08 11:20:17;;;;;;;0.70;0.70;;;13.50;99.90;;;;;;4929268;29;20044;-77
2022/11/08 11:22:45;;;;;;;0.30;0.30;;;13.50;99.90;;;;;;4993370;23;20046;-76
2022/11/08 11:25:17;;;;;;;0.82;0.82;;;13.40;99.90;;;;;;4998298;28;20321;-77
2022/11/08 11:27:50;;;;;;;0.32;0.32;;;13.40;99.90;;;;;;5006114;28;20011;-76
2022/11/08 11:30:29;;;;;;;0.10;0.10;;;13.50;99.90;;;;;;5006876;28;20085;-77
2022/11/08 11:33:12;;;;;;;0.30;0.30;;;13.70;99.90;;;;;;5008381;28;20026;-76
2022/11/08 11:35:46;;;;;;;8.43;5.80;;;11.90;99.90;;;;;;5004280;28;20042;-76
2022/11/08 11:38:27;;;;;;;0.13;0.13;;;13.60;99.90;;;;;;5004415;28;20085;-76
2022/11/08 11:41:17;;;;;;;0.17;0.17;;;13.70;99.90;;;;;;5010120;28;20037;-76
2022/11/08 11:44:15;;;;;;;0.28;0.28;;;13.80;99.90;;;;;;5025354;23;20034;-76
2022/11/08 11:46:56;;;;;;;0.35;0.35;;;14.00;99.90;;;;;;5011128;28;20086;-76
2022/11/08 11:49:24;;;;;;;2.05;1.95;;;14.10;99.90;;;;;;5009156;28;20030;-77
2022/11/08 11:51:53;;;;;;;0.20;0.20;;;14.40;99.90;;;;;;5014830;28;20057;-77
2022/11/08 11:54:38;;;;;;;1.45;1.45;;;14.30;99.90;;;;;;4995703;28;20030;-78
2022/11/08 11:57:49;;;;;;;0.40;0.40;;;14.60;99.90;;;;;;5014506;28;20067;-78
2022/11/08 12:00:19;;;;;;;0.28;0.28;;;14.30;99.90;;;;;;5013650;28;20041;-76
2022/11/08 12:03:13;;;;;;;0.10;0.10;;;14.40;99.90;;;;;;5014675;28;20042;-75
2022/11/08 12:06:15;;;;;;;0.22;0.22;;;14.70;99.90;;;;;;5014471;28;20014;-76
2022/11/08 12:09:15;;;;;;;1.40;1.35;;;14.70;99.90;;;;;;5012437;28;20025;-76
2022/11/08 12:11:43;;;;;;;6.55;6.00;;;14.90;99.90;;;;;;4932337;29;20235;-76
2022/11/08 12:14:40;;;;;;;;;;;;;;;;;;;;;
2022/11/08 12:20:21;;;;;;;0.20;0.20;;;14.60;99.90;;;;;;5025658;23;20453;-77
2022/11/08 12:23:11;;;;;;;0.20;0.20;;;15.20;99.90;;;;;;5032017;28;20037;-76
2022/11/08 12:25:58;;;;;;;0.20;0.20;;;15.30;99.90;;;;;;5032022;28;20029;-75
2022/11/08 12:28:42;;;;;;;0.45;0.45;;;15.50;99.90;;;;;;5006114;28;20532;-84
2022/11/08 12:31:07;;;;;;;;;;;15.40;99.90;;;;;;5003745;28;20037;-76
2022/11/08 12:34:05;;;;;;;0.20;0.20;;;15.30;99.90;;;;;;5018578;28;19905;-80
2022/11/08 12:36:38;;;;;;;2.13;2.05;;;15.40;99.90;;;;;;5017332;28;20033;-80
2022/11/08 12:39:30;;;;;;;0.10;0.10;;;15.70;99.90;;;;;;5013634;28;20030;-74
2022/11/08 12:41:56;;;;;;;0.10;0.10;;;15.60;99.90;;;;;;5013414;28;20022;-81
2022/11/08 12:44:44;;;;;;;0.10;0.10;;;15.70;99.90;;;;;;4998164;28;20037;-80
2022/11/08 12:47:40;;;;;;;0.10;0.10;;;15.80;99.90;;;;;;5013645;28;20037;-76
2022/11/08 12:50:28;;;;;;;0.20;0.20;;;15.90;99.90;;;;;;5000258;28;20056;-74
2022/11/08 12:53:33;;;;;;;0.47;0.47;;;15.90;99.90;;;;;;5013196;28;20055;-74
2022/11/08 12:56:01;;;;;;;0.20;0.20;;;16.20;99.90;;;;;;5012716;28;20140;-78
2022/11/08 12:58:46;;;;;;;0.68;0.68;;;16.40;99.90;;;;;;4993795;28;20025;-75
2022/11/08 13:01:14;;;;;;;3.25;2.97;;;16.50;99.90;;;;;;5019009;28;20026;-76
2022/11/08 13:03:48;;;;;;;3.90;3.70;;;16.60;99.90;;;;;;5020107;28;20021;-75
2022/11/08 13:06:33;;;;;;;5.72;5.20;;;16.60;99.90;;;;;;5021591;28;20091;-75
2022/11/08 13:09:35;;;;;;;0.30;0.30;;;16.60;99.90;;;;;;5006885;28;20133;-76
2022/11/08 13:12:06;;;;;;;0.20;0.20;;;16.80;99.90;;;;;;5018459;28;20034;-74
2022/11/08 13:14:34;;;;;;;0.10;0.10;;;16.70;99.90;;;;;;5008219;28;20025;-76
2022/11/08 13:17:18;;;;;;;0.20;0.20;;;16.80;99.90;;;;;;5011255;28;20022;-79
2022/11/08 13:19:50;;;;;;;1.92;1.83;;;16.70;99.90;;;;;;5019065;28;20050;-84
2022/11/08 13:22:31;;;;;;;0.98;0.98;;;16.40;99.90;;;;;;5025597;28;20040;-75
2022/11/08 13:24:58;;;;;;;1.10;1.10;;;16.60;99.90;;;;;;5022865;28;20025;-74
2022/11/08 13:27:41;;;;;;;0.30;0.30;;;16.80;99.90;;;;;;5020745;28;20026;-79
2022/11/08 13:30:16;;;;;;;0.60;0.55;;;16.90;99.90;;;;;;5006197;28;20658;-77
2022/11/08 13:33:10;;;;;;;2.15;2.05;;;17.30;99.90;;;;;;5004487;28;20061;-81
2022/11/08 13:36:06;;;;;;;0.10;0.10;;;17.30;99.90;;;;;;5011368;28;20021;-80
2022/11/08 13:38:51;;;;;;;9.95;3.35;;;17.20;99.90;;;;;;5012996;28;20022;-77
2022/11/08 13:41:18;;;;;;;6.22;2.95;;;17.40;99.90;;;;;;5021183;28;20022;-78
2022/11/08 13:43:46;;;;;;;0.50;0.50;;;17.60;99.90;;;;;;5007773;28;20208;-88
2022/11/08 13:46:24;;;;;;;1.73;1.63;;;17.80;99.80;;;;;;5001466;28;20286;-79
2022/11/08 13:49:04;;;;;;;0.80;0.73;;;18.00;99.40;;;;;;5000813;28;20499;-76
2022/11/08 13:51:37;;;;;;;1.50;1.40;;;18.20;98.60;;;;;;5623805;23;20026;-81
2022/11/08 13:54:21;;;;;;;3.35;3.20;;;18.20;98.80;;;;;;4983387;28;20197;-90
2022/11/08 13:56:52;;;;;;;0.25;0.25;;;18.50;97.90;;;;;;5000962;28;20083;-79
2022/11/08 14:10:32;;;;;;;2.05;1.95;;;18.50;97.50;;;;;;4569623;23;20046;-77
2022/11/08 14:13:17;;;;;;;2.30;2.20;;;18.50;97.40;;;;;;4963299;28;20111;-78
2022/11/08 14:16:00;;;;;;;0.30;0.30;;;18.50;97.50;;;;;;4964289;28;20035;-76
2022/11/08 14:18:28;;;;;;;7.60;3.38;;;19.10;95.60;;;;;;4973093;28;20022;-90
2022/11/08 14:33:21;;;;;;;0.10;0.10;;;18.30;97.50;;;;;;5715491;23;20057;-89
2022/11/08 14:36:07;;;;;;;1.80;1.65;;;18.50;97.00;;;;;;5004822;28;20682;-86
2022/11/08 14:38:44;;;;;;;3.42;3.22;;;18.40;96.90;;;;;;5004461;28;20017;-93
2022/11/08 14:41:20;;;;;;;1.40;1.35;;;18.10;97.30;;;;;;5015255;28;20097;-93
2022/11/08 14:43:47;;;;;;;2.63;2.45;;;17.90;97.50;;;;;;5015985;28;20508;-90
2022/11/08 14:46:41;;;;;;;6.13;2.72;;;17.60;98.00;;;;;;4991644;28;20133;-92
2022/11/08 14:49:30;;;;;;;0.20;0.20;;;17.40;98.70;;;;;;5012158;28;20092;-93
2022/11/08 14:52:29;;;;;;;2.53;2.33;;;17.00;99.60;;;;;;4938804;29;20036;-94
2022/11/08 14:55:10;;;;;;;0.68;0.63;;;16.60;99.90;;;;;;4880913;29;20044;-93
2022/11/08 14:57:44;;;;;;;0.20;0.20;;;16.20;99.90;;;;;;4876471;29;20761;-76
2022/11/08 15:00:14;;;;;;;3.22;3.13;;;15.80;99.90;;;;;;4875321;29;20029;-78
2022/11/08 15:02:45;;;;;;;1.27;1.20;;;15.50;99.90;;;;;;4872343;29;20694;-78